createdAt,value
2022-11-13T00:01:25.763Z,59.12
2022-11-13T00:04:12.893Z,59.20
2022-11-13T00:07:00.416Z,59.16
2022-11-13T00:09:47.263Z,58.97
2022-11-13T00:12:34.230Z,58.93
2022-11-13T00:15:21.349Z,58.89
2022-11-13T00:18:09.850Z,58.94
2022-11-13T00:20:58.693Z,58.91
2022-11-13T00:23:46.121Z,58.73
2022-11-13T00:26:32.861Z,58.50
2022-11-13T00:29:21.132Z,58.31
2022-11-13T00:32:08.251Z,58.29
2022-11-13T00:34:55.320Z,57.90
2022-11-13T00:37:42.083Z,58.07
2022-11-13T00:40:29.422Z,58.03
2022-11-13T00:43:16.160Z,57.92
2022-11-13T00:46:03.717Z,57.79
2022-11-13T00:48:50.400Z,57.99
2022-11-13T00:51:37.760Z,57.80
2022-11-13T00:54:24.760Z,57.83
2022-11-13T00:57:13.570Z,57.96
2022-11-13T01:00:00.282Z,57.83
2022-11-13T01:02:47.363Z,57.96
2022-11-13T01:05:43.299Z,57.78
2022-11-13T01:08:31.083Z,57.96
2022-11-13T01:11:23.530Z,58.12
2022-11-13T01:14:10.741Z,57.91
2022-11-13T01:16:57.689Z,57.68
2022-11-13T01:19:46.150Z,57.55
2022-11-13T01:22:33.012Z,57.31
2022-11-13T01:25:20.519Z,56.96
2022-11-13T01:28:07.270Z,57.10
2022-11-13T01:30:54.750Z,56.70
2022-11-13T01:33:41.561Z,56.33
2022-11-13T01:36:29.600Z,56.40
2022-11-13T01:39:16.635Z,56.34
2022-11-13T01:42:04.532Z,56.37
2022-11-13T01:44:54.320Z,56.22
2022-11-13T01:47:41.530Z,55.83
2022-11-13T01:50:28.794Z,55.56
2022-11-13T01:53:17.029Z,55.83
2022-11-13T01:56:04.591Z,55.41
2022-11-13T01:58:59.851Z,55.50
2022-11-13T02:01:46.896Z,55.23
2022-11-13T02:04:34.501Z,55.72
2022-11-13T02:07:22.060Z,55.41
2022-11-13T02:10:10.270Z,55.22
2022-11-13T02:12:56.950Z,54.91
2022-11-13T02:15:45.154Z,55.17
2022-11-13T02:18:32.000Z,54.95
2022-11-13T02:21:52.733Z,54.87
2022-11-13T02:24:45.535Z,55.01
2022-11-13T02:27:50.122Z,54.88
2022-11-13T02:30:37.626Z,54.90
2022-11-13T02:33:30.860Z,54.43
2022-11-13T02:36:17.930Z,54.75
2022-11-13T02:39:09.411Z,54.65
2022-11-13T02:41:56.464Z,54.74
2022-11-13T02:44:44.010Z,54.86
2022-11-13T02:47:30.820Z,54.67
2022-11-13T02:50:18.359Z,54.77
2022-11-13T02:53:05.492Z,54.63
2022-11-13T02:55:52.530Z,54.55
2022-11-13T02:58:39.590Z,54.54
2022-11-13T03:01:26.876Z,54.28
2022-11-13T03:04:13.651Z,54.27
2022-11-13T03:07:01.905Z,54.40
2022-11-13T03:09:48.730Z,53.95
2022-11-13T03:12:36.081Z,54.20
2022-11-13T03:15:23.313Z,54.28
2022-11-13T03:18:12.294Z,53.78
2022-11-13T03:21:05.484Z,54.01
2022-11-13T03:23:54.274Z,54.20
2022-11-13T03:26:41.380Z,53.96
2022-11-13T03:29:28.521Z,53.76
2022-11-13T03:32:15.490Z,53.71
2022-11-13T03:35:02.814Z,53.94
2022-11-13T03:37:49.612Z,53.78
2022-11-13T03:40:37.100Z,53.65
2022-11-13T03:43:24.365Z,54.04
2022-11-13T03:46:11.889Z,53.88
2022-11-13T03:48:58.821Z,53.74
2022-11-13T03:51:47.702Z,53.71
2022-11-13T03:54:34.789Z,53.82
2022-11-13T03:57:22.802Z,53.86
2022-11-13T04:00:11.219Z,53.80
2022-11-13T04:02:59.090Z,53.68
2022-11-13T04:05:48.019Z,53.69
2022-11-13T04:08:36.059Z,53.82
2022-11-13T04:11:23.180Z,54.06
2022-11-13T04:14:10.229Z,53.55
2022-11-13T04:16:56.924Z,53.71
2022-11-13T04:19:45.070Z,53.77
2022-11-13T04:22:32.129Z,53.62
2022-11-13T04:25:20.900Z,53.32
2022-11-13T04:28:07.609Z,53.13
2022-11-13T04:30:55.291Z,52.97
2022-11-13T04:33:42.039Z,53.37
2022-11-13T04:36:29.320Z,52.82
2022-11-13T04:39:16.408Z,52.55
2022-11-13T04:42:23.569Z,52.85
2022-11-13T04:45:10.782Z,52.59
2022-11-13T04:47:59.180Z,52.25
2022-11-13T04:50:46.789Z,51.96
2022-11-13T04:53:35.200Z,52.35
2022-11-13T04:56:21.977Z,52.21
2022-11-13T04:59:09.420Z,52.24
2022-11-13T05:01:56.492Z,52.02
2022-11-13T05:04:43.479Z,51.19
2022-11-13T05:07:30.700Z,52.41
2022-11-13T05:10:18.229Z,51.16
2022-11-13T05:13:04.859Z,51.45
2022-11-13T05:16:00.518Z,52.13
2022-11-13T05:18:47.340Z,51.98
2022-11-13T05:21:39.699Z,51.90
2022-11-13T05:24:26.178Z,51.39
2022-11-13T05:27:17.469Z,51.22
2022-11-13T05:30:06.213Z,50.90
2022-11-13T05:32:53.441Z,50.56
2022-11-13T05:35:40.393Z,50.49
2022-11-13T05:38:29.457Z,50.25
2022-11-13T05:41:21.889Z,50.39
2022-11-13T05:44:09.261Z,49.96
2022-11-13T05:46:56.124Z,49.69
2022-11-13T05:49:43.393Z,49.70
2022-11-13T05:52:30.589Z,49.45
2022-11-13T05:55:23.006Z,49.54
2022-11-13T05:58:12.102Z,49.49
2022-11-13T06:01:29.287Z,49.50
2022-11-13T06:04:16.161Z,49.45
2022-11-13T06:07:04.509Z,49.36
2022-11-13T06:09:51.260Z,49.65
2022-11-13T06:12:39.850Z,49.48
2022-11-13T06:15:26.781Z,49.48
2022-11-13T06:18:13.959Z,49.64
2022-11-13T06:21:17.879Z,49.67
2022-11-13T06:24:05.873Z,49.73
2022-11-13T06:26:54.009Z,49.75
2022-11-13T06:29:42.251Z,50.00
2022-11-13T06:32:29.469Z,50.07
2022-11-13T06:35:17.019Z,50.09
2022-11-13T06:38:04.240Z,49.80
2022-11-13T06:40:51.659Z,50.16
2022-11-13T06:43:38.920Z,50.20
2022-11-13T06:46:28.651Z,50.32
2022-11-13T06:49:15.852Z,50.44
2022-11-13T06:52:03.280Z,50.27
2022-11-13T06:54:50.431Z,50.33
2022-11-13T06:57:39.153Z,50.53
2022-11-13T07:00:25.981Z,50.53
2022-11-13T07:03:26.850Z,50.58
2022-11-13T07:06:22.828Z,50.55
2022-11-13T07:09:11.356Z,50.54
2022-11-13T07:11:58.541Z,50.50
2022-11-13T07:14:46.012Z,50.44
2022-11-13T07:17:33.011Z,50.65
2022-11-13T07:20:20.210Z,50.58
2022-11-13T07:23:07.622Z,50.68
2022-11-13T07:25:55.780Z,50.58
2022-11-13T07:28:42.914Z,50.66
2022-11-13T07:31:31.240Z,50.80
2022-11-13T07:34:18.120Z,50.69
2022-11-13T07:37:07.110Z,50.83
2022-11-13T07:39:54.291Z,50.72
2022-11-13T07:42:43.012Z,50.62
2022-11-13T07:45:29.955Z,50.54
2022-11-13T07:48:17.323Z,50.54
2022-11-13T07:51:04.322Z,50.11
2022-11-13T07:53:51.431Z,50.44
2022-11-13T07:56:38.352Z,50.19
2022-11-13T07:59:25.751Z,50.19
2022-11-13T08:02:16.371Z,50.14
2022-11-13T08:05:04.074Z,49.79
2022-11-13T08:07:52.176Z,49.50
2022-11-13T08:10:41.132Z,49.38
2022-11-13T08:13:28.062Z,49.37
2022-11-13T08:16:16.505Z,49.21
2022-11-13T08:19:04.236Z,49.28
2022-11-13T08:21:51.452Z,49.09
2022-11-13T08:24:39.392Z,49.02
2022-11-13T08:27:26.612Z,48.74
2022-11-13T08:30:14.601Z,48.76
2022-11-13T08:33:03.272Z,48.59
2022-11-13T08:35:58.522Z,48.69
2022-11-13T08:38:45.822Z,48.50
2022-11-13T08:41:33.564Z,48.49
2022-11-13T08:44:20.890Z,48.16
2022-11-13T08:47:07.822Z,48.25
2022-11-13T08:49:55.712Z,48.10
2022-11-13T08:52:42.869Z,47.96
2022-11-13T08:55:30.254Z,47.98
2022-11-13T08:58:17.293Z,47.80
2022-11-13T09:01:05.431Z,47.66
2022-11-13T09:03:52.329Z,47.71
2022-11-13T09:06:39.761Z,47.42
2022-11-13T09:09:26.500Z,47.39
2022-11-13T09:12:13.724Z,47.43
2022-11-13T09:15:00.562Z,47.26
2022-11-13T09:17:47.941Z,47.20
2022-11-13T09:20:35.111Z,47.33
2022-11-13T09:23:22.552Z,47.23
2022-11-13T09:26:09.590Z,47.22
2022-11-13T09:28:56.712Z,47.12
2022-11-13T09:31:43.881Z,47.05
2022-11-13T09:34:33.831Z,46.89
2022-11-13T09:37:21.068Z,46.71
2022-11-13T09:40:12.218Z,46.84
2022-11-13T09:43:01.045Z,46.95
2022-11-13T09:45:48.671Z,46.63
2022-11-13T09:48:38.574Z,46.41
2022-11-13T09:51:30.748Z,46.20
2022-11-13T09:54:17.627Z,46.45
2022-11-13T09:57:26.301Z,46.48
2022-11-13T10:00:19.931Z,46.19
2022-11-13T10:03:23.962Z,46.10
2022-11-13T10:06:39.510Z,46.07
2022-11-13T10:09:55.520Z,46.44
2022-11-13T10:12:42.753Z,46.28
2022-11-13T10:15:30.041Z,46.35
2022-11-13T10:18:30.638Z,46.12
2022-11-13T10:21:37.700Z,46.07
2022-11-13T10:24:37.979Z,46.08
2022-11-13T10:27:26.518Z,45.97
2022-11-13T10:30:18.672Z,46.06
2022-11-13T10:33:08.593Z,45.88
2022-11-13T10:36:19.920Z,45.84
2022-11-13T10:39:08.890Z,46.00
2022-11-13T10:41:56.320Z,46.05
2022-11-13T10:44:57.736Z,45.79
2022-11-13T10:48:03.632Z,45.82
2022-11-13T10:51:15.591Z,46.17
2022-11-13T10:54:22.053Z,46.15
2022-11-13T10:57:33.701Z,46.35
2022-11-13T11:00:34.386Z,46.20
2022-11-13T11:03:23.979Z,45.91
2022-11-13T11:06:11.020Z,45.85
2022-11-13T11:09:21.311Z,45.84
2022-11-13T11:12:23.104Z,45.95
2022-11-13T11:15:51.761Z,45.69
2022-11-13T11:18:54.570Z,45.58
2022-11-13T11:21:43.041Z,45.81
2022-11-13T11:24:37.481Z,45.67
2022-11-13T11:27:47.003Z,45.64
2022-11-13T11:30:53.838Z,45.59
2022-11-13T11:34:40.273Z,45.62
2022-11-13T11:37:41.355Z,45.61
2022-11-13T11:40:42.399Z,45.49
2022-11-13T11:43:39.631Z,45.38
2022-11-13T11:46:28.739Z,45.64
2022-11-13T11:49:15.862Z,45.67
2022-11-13T11:53:02.371Z,45.82
2022-11-13T11:56:40.570Z,45.71
2022-11-13T12:00:01.746Z,45.66
2022-11-13T12:03:32.741Z,45.55
2022-11-13T12:06:32.424Z,45.66
2022-11-13T12:09:40.590Z,45.77
2022-11-13T12:12:58.650Z,45.90
2022-11-13T12:16:09.860Z,45.78
2022-11-13T12:19:23.418Z,46.03
2022-11-13T12:22:30.563Z,46.21
2022-11-13T12:25:44.470Z,46.09
2022-11-13T12:28:56.972Z,46.21
2022-11-13T12:31:58.669Z,46.11
2022-11-13T12:34:52.871Z,46.12
2022-11-13T12:38:13.040Z,46.08
2022-11-13T12:41:15.147Z,46.10
2022-11-13T12:44:24.872Z,46.33
2022-11-13T12:47:12.000Z,46.84
2022-11-13T12:50:31.692Z,46.66
2022-11-13T12:53:31.269Z,46.78
2022-11-13T12:56:28.852Z,46.95
2022-11-13T12:59:34.068Z,46.77
2022-11-13T13:02:32.573Z,46.82
2022-11-13T13:05:46.664Z,47.05
2022-11-13T13:09:22.071Z,47.01
2022-11-13T13:12:36.678Z,47.20
2022-11-13T13:15:36.469Z,47.11
2022-11-13T13:18:29.975Z,47.01
2022-11-13T13:21:18.864Z,47.18
2022-11-13T13:24:27.349Z,47.15
2022-11-13T13:27:26.548Z,47.30
2022-11-13T13:30:22.529Z,47.22
2022-11-13T13:33:15.477Z,47.36
2022-11-13T13:36:21.349Z,47.30
2022-11-13T13:39:48.626Z,47.36
2022-11-13T13:43:05.497Z,47.24
2022-11-13T13:46:11.017Z,47.48
2022-11-13T13:49:07.017Z,47.60
2022-11-13T13:51:55.757Z,47.63
2022-11-13T13:54:42.893Z,47.58
2022-11-13T13:57:30.638Z,47.89
2022-11-13T14:00:19.525Z,47.65
2022-11-13T14:03:20.143Z,47.81
2022-11-13T14:06:24.733Z,47.61
2022-11-13T14:09:23.439Z,47.76
2022-11-13T14:12:22.114Z,47.89
2022-11-13T14:15:28.790Z,47.85
2022-11-13T14:18:17.849Z,47.94
2022-11-13T14:21:16.180Z,48.04
2022-11-13T14:24:03.923Z,47.86
2022-11-13T14:26:53.129Z,47.93
2022-11-13T14:29:52.758Z,48.13
2022-11-13T14:32:45.704Z,47.95
2022-11-13T14:35:34.167Z,48.18
2022-11-13T14:38:26.823Z,48.18
2022-11-13T14:41:50.346Z,47.96
2022-11-13T14:44:37.503Z,48.16
2022-11-13T14:47:28.786Z,48.35
2022-11-13T14:50:24.293Z,48.26
2022-11-13T14:53:11.620Z,48.42
2022-11-13T14:56:12.295Z,48.27
2022-11-13T14:59:18.348Z,48.34
2022-11-13T15:02:07.354Z,48.21
2022-11-13T15:04:54.147Z,48.39
2022-11-13T15:07:42.775Z,48.35
2022-11-13T15:10:30.515Z,48.32
2022-11-13T15:13:18.547Z,48.26
2022-11-13T15:16:06.123Z,48.36
2022-11-13T15:19:14.128Z,48.26
2022-11-13T15:25:20.693Z,48.39
2022-11-13T15:28:07.579Z,48.60
2022-11-13T15:30:55.256Z,48.46
2022-11-13T15:33:42.395Z,48.69
2022-11-13T15:36:30.595Z,48.34
2022-11-13T15:39:23.378Z,48.51
2022-11-13T15:42:17.345Z,48.75
2022-11-13T15:45:07.695Z,48.87
2022-11-13T15:47:55.165Z,49.33
2022-11-13T15:50:41.983Z,49.46
2022-11-13T15:53:29.576Z,49.20
2022-11-13T15:56:17.004Z,49.44
2022-11-13T15:59:04.137Z,49.50
2022-11-13T16:01:54.067Z,49.57
2022-11-13T16:04:55.954Z,49.85
2022-11-13T16:07:43.620Z,49.77
2022-11-13T16:10:31.064Z,49.88
2022-11-13T16:13:18.292Z,49.51
2022-11-13T16:16:08.383Z,49.32
2022-11-13T16:18:59.988Z,49.48
2022-11-13T16:21:48.594Z,49.21
2022-11-13T16:24:35.587Z,49.12
2022-11-13T16:27:31.805Z,48.95
2022-11-13T16:30:23.732Z,48.93
2022-11-13T16:33:11.293Z,48.83
2022-11-13T16:35:58.510Z,48.76
2022-11-13T16:38:45.688Z,48.67
2022-11-13T16:41:32.755Z,48.80
2022-11-13T16:44:20.211Z,48.97
2022-11-13T16:47:08.283Z,49.12
2022-11-13T16:49:55.808Z,49.20
2022-11-13T16:52:43.463Z,49.33
2022-11-13T16:55:31.319Z,49.49
2022-11-13T16:58:19.511Z,49.54
2022-11-13T17:01:07.144Z,49.63
2022-11-13T17:03:54.314Z,49.80
2022-11-13T17:06:41.783Z,49.71
2022-11-13T17:09:29.514Z,49.76
2022-11-13T17:12:19.144Z,49.93
2022-11-13T17:15:09.875Z,50.21
2022-11-13T17:17:58.946Z,50.31
2022-11-13T17:20:51.322Z,50.50
2022-11-13T17:23:38.828Z,50.56
2022-11-13T17:26:26.193Z,50.52
2022-11-13T17:29:13.865Z,50.73
2022-11-13T17:32:01.429Z,50.70
2022-11-13T17:34:49.913Z,50.83
2022-11-13T17:37:36.843Z,50.88
2022-11-13T17:40:24.213Z,50.73
2022-11-13T17:43:11.862Z,50.92
2022-11-13T17:45:59.544Z,51.06
2022-11-13T17:48:48.692Z,51.03
2022-11-13T17:51:36.003Z,51.35
2022-11-13T17:54:23.735Z,51.03
2022-11-13T17:57:13.033Z,51.30
2022-11-13T17:59:59.944Z,51.26
2022-11-13T18:02:47.082Z,51.30
2022-11-13T18:05:40.470Z,51.41
2022-11-13T18:08:28.176Z,51.48
2022-11-13T18:11:19.793Z,51.33
2022-11-13T18:14:06.772Z,51.40
2022-11-13T18:16:53.853Z,51.25
2022-11-13T18:19:41.338Z,51.18
2022-11-13T18:22:28.773Z,51.40
2022-11-13T18:25:15.976Z,51.19
2022-11-13T18:28:03.275Z,51.09
2022-11-13T18:30:56.131Z,51.18
2022-11-13T18:33:45.810Z,51.20
2022-11-13T18:36:35.851Z,51.34
2022-11-13T18:39:23.796Z,51.50
2022-11-13T18:42:10.783Z,51.20
2022-11-13T18:45:00.536Z,51.59
2022-11-13T18:47:52.784Z,51.87
2022-11-13T18:50:41.603Z,51.85
2022-11-13T18:53:34.330Z,52.02
2022-11-13T18:56:25.058Z,52.20
2022-11-13T18:59:27.250Z,52.23
2022-11-13T19:02:16.573Z,52.00
2022-11-13T19:05:06.669Z,52.45
2022-11-13T19:07:56.812Z,52.49
2022-11-13T19:10:44.988Z,52.44
2022-11-13T19:13:35.078Z,52.65
2022-11-13T19:16:26.473Z,52.70
2022-11-13T19:19:20.628Z,52.63
2022-11-13T19:22:09.244Z,52.93
2022-11-13T19:24:57.203Z,52.93
2022-11-13T19:27:44.461Z,53.10
2022-11-13T19:30:32.623Z,53.06
2022-11-13T19:33:19.538Z,53.19
2022-11-13T19:36:13.033Z,53.35
2022-11-13T19:39:00.136Z,53.39
2022-11-13T19:41:47.318Z,53.44
2022-11-13T19:44:34.389Z,53.42
2022-11-13T19:47:21.809Z,53.54
2022-11-13T19:50:10.403Z,53.37
2022-11-13T19:52:58.083Z,53.54
2022-11-13T19:55:58.049Z,53.58
2022-11-13T19:58:47.011Z,53.64
2022-11-13T20:01:34.185Z,53.61
2022-11-13T20:04:23.413Z,53.77
2022-11-13T20:07:11.590Z,53.82
2022-11-13T20:09:58.554Z,53.90
2022-11-13T20:12:46.449Z,53.84
2022-11-13T20:15:34.969Z,54.06
2022-11-13T20:18:21.954Z,53.99
2022-11-13T20:21:09.014Z,53.96
2022-11-13T20:23:56.859Z,53.94
2022-11-13T20:26:44.033Z,54.17
2022-11-13T20:29:33.099Z,54.29
2022-11-13T20:32:21.454Z,54.18
2022-11-13T20:35:09.479Z,54.26
2022-11-13T20:37:58.773Z,54.34
2022-11-13T20:40:45.838Z,54.17
2022-11-13T20:43:33.419Z,54.27
2022-11-13T20:46:21.360Z,54.07
2022-11-13T20:49:08.755Z,54.32
2022-11-13T20:51:57.308Z,54.22
2022-11-13T20:54:45.283Z,54.03
2022-11-13T20:57:39.665Z,54.29
2022-11-13T21:00:28.784Z,54.41
2022-11-13T21:03:16.383Z,54.51
2022-11-13T21:06:03.839Z,54.44
2022-11-13T21:08:53.863Z,54.47
2022-11-13T21:11:42.318Z,54.60
2022-11-13T21:14:29.189Z,54.54
2022-11-13T21:17:16.913Z,54.33
2022-11-13T21:20:05.348Z,54.52
2022-11-13T21:22:54.204Z,54.52
2022-11-13T21:25:40.866Z,54.50
2022-11-13T21:28:32.432Z,54.50
2022-11-13T21:31:21.593Z,54.36
2022-11-13T21:34:10.324Z,54.62
2022-11-13T21:36:57.478Z,54.53
2022-11-13T21:39:44.954Z,54.65
2022-11-13T21:42:32.104Z,54.58
2022-11-13T21:45:19.919Z,54.55
2022-11-13T21:48:07.428Z,54.48
2022-11-13T21:50:55.158Z,54.39
2022-11-13T21:53:43.328Z,53.98
2022-11-13T21:56:32.458Z,54.14
2022-11-13T21:59:19.830Z,53.52
2022-11-13T22:02:10.638Z,53.50
2022-11-13T22:04:57.829Z,53.43
2022-11-13T22:07:46.571Z,53.32
2022-11-13T22:10:33.889Z,53.17
2022-11-13T22:13:21.455Z,53.16
2022-11-13T22:16:09.579Z,53.09
2022-11-13T22:18:59.341Z,53.18
2022-11-13T22:21:46.839Z,53.26
2022-11-13T22:24:34.639Z,53.26
2022-11-13T22:27:22.110Z,53.19
2022-11-13T22:30:11.219Z,53.37
2022-11-13T22:32:58.692Z,53.25
2022-11-13T22:35:46.474Z,53.45
2022-11-13T22:38:35.332Z,53.30
2022-11-13T22:41:30.932Z,53.28
2022-11-13T22:44:18.242Z,53.36
2022-11-13T22:47:05.755Z,53.47
2022-11-13T22:49:52.900Z,53.35
2022-11-13T22:52:42.129Z,53.50
2022-11-13T22:55:29.105Z,53.33
2022-11-13T22:58:16.877Z,53.50
2022-11-13T23:01:16.094Z,53.49
2022-11-13T23:04:06.719Z,53.35
2022-11-13T23:06:53.956Z,53.60
2022-11-13T23:09:41.950Z,53.70
2022-11-13T23:12:29.230Z,53.73
2022-11-13T23:15:16.830Z,53.75
2022-11-13T23:18:09.529Z,53.67
2022-11-13T23:20:58.760Z,53.92
2022-11-13T23:23:46.310Z,53.92
2022-11-13T23:26:33.541Z,54.14
2022-11-13T23:29:20.664Z,53.85
2022-11-13T23:32:09.494Z,54.07
2022-11-13T23:34:59.800Z,54.11
2022-11-13T23:37:47.788Z,54.18
2022-11-13T23:40:35.210Z,54.37
2022-11-13T23:43:36.486Z,54.13
2022-11-13T23:46:32.017Z,54.27
2022-11-13T23:49:19.330Z,54.29
2022-11-13T23:52:06.360Z,54.33
2022-11-13T23:54:53.831Z,54.21
2022-11-13T23:57:41.164Z,54.35
